sensor_id;sensor_type;location;lat;lon;timestamp;P1;durP1;ratioP1;P2;durP2;ratioP2
75689;SDS011;64303;53.118;9.044;2023-06-22T00:02:00;13.95;;;11.48;;
75689;SDS011;64303;53.118;9.044;2023-06-22T00:04:28;15.05;;;12.32;;
75689;SDS011;64303;53.118;9.044;2023-06-22T00:06:54;15.82;;;13.85;;
75689;SDS011;64303;53.118;9.044;2023-06-22T00:09:21;16.05;;;12.43;;
75689;SDS011;64303;53.118;9.044;2023-06-22T00:11:48;17.55;;;13.80;;
75689;SDS011;64303;53.118;9.044;2023-06-22T00:14:14;16.98;;;13.23;;
75689;SDS011;64303;53.118;9.044;2023-06-22T00:16:41;13.98;;;11.27;;
75689;SDS011;64303;53.118;9.044;2023-06-22T00:19:09;11.88;;;10.18;;
75689;SDS011;64303;53.118;9.044;2023-06-22T00:24:04;13.10;;;10.20;;
75689;SDS011;64303;53.118;9.044;2023-06-22T00:26:32;14.75;;;11.00;;
75689;SDS011;64303;53.118;9.044;2023-06-22T00:28:59;13.30;;;11.27;;
75689;SDS011;64303;53.118;9.044;2023-06-22T00:31:26;11.90;;;10.48;;
75689;SDS011;64303;53.118;9.044;2023-06-22T00:33:53;15.07;;;11.80;;
75689;SDS011;64303;53.118;9.044;2023-06-22T00:36:20;15.82;;;12.35;;
75689;SDS011;64303;53.118;9.044;2023-06-22T00:38:48;14.93;;;12.05;;
75689;SDS011;64303;53.118;9.044;2023-06-22T00:41:16;15.63;;;11.90;;
75689;SDS011;64303;53.118;9.044;2023-06-22T00:43:43;13.50;;;11.05;;
75689;SDS011;64303;53.118;9.044;2023-06-22T00:46:09;13.70;;;11.60;;
75689;SDS011;64303;53.118;9.044;2023-06-22T00:48:36;13.98;;;9.90;;
75689;SDS011;64303;53.118;9.044;2023-06-22T00:51:03;12.35;;;10.57;;
75689;SDS011;64303;53.118;9.044;2023-06-22T00:53:30;15.43;;;11.50;;
75689;SDS011;64303;53.118;9.044;2023-06-22T00:56:01;15.38;;;12.10;;
75689;SDS011;64303;53.118;9.044;2023-06-22T00:58:29;15.43;;;13.75;;
75689;SDS011;64303;53.118;9.044;2023-06-22T01:00:55;17.25;;;13.85;;
75689;SDS011;64303;53.118;9.044;2023-06-22T01:03:26;16.52;;;14.63;;
75689;SDS011;64303;53.118;9.044;2023-06-22T01:05:53;19.88;;;14.80;;
75689;SDS011;64303;53.118;9.044;2023-06-22T01:08:25;18.13;;;16.00;;
75689;SDS011;64303;53.118;9.044;2023-06-22T01:10:58;18.17;;;16.27;;
75689;SDS011;64303;53.118;9.044;2023-06-22T01:13:37;18.60;;;15.90;;
75689;SDS011;64303;53.118;9.044;2023-06-22T01:16:07;17.45;;;15.45;;
75689;SDS011;64303;53.118;9.044;2023-06-22T01:18:38;17.77;;;14.07;;
75689;SDS011;64303;53.118;9.044;2023-06-22T01:21:07;20.10;;;15.38;;
75689;SDS011;64303;53.118;9.044;2023-06-22T01:23:39;19.90;;;15.48;;
75689;SDS011;64303;53.118;9.044;2023-06-22T01:26:18;16.38;;;13.38;;
75689;SDS011;64303;53.118;9.044;2023-06-22T01:28:49;17.20;;;14.57;;
75689;SDS011;64303;53.118;9.044;2023-06-22T01:31:18;19.80;;;13.98;;
75689;SDS011;64303;53.118;9.044;2023-06-22T01:33:48;17.65;;;13.43;;
75689;SDS011;64303;53.118;9.044;2023-06-22T01:36:17;18.02;;;14.63;;
75689;SDS011;64303;53.118;9.044;2023-06-22T01:41:12;18.20;;;14.07;;
75689;SDS011;64303;53.118;9.044;2023-06-22T01:43:39;18.95;;;15.75;;
75689;SDS011;64303;53.118;9.044;2023-06-22T01:46:07;20.45;;;16.02;;
75689;SDS011;64303;53.118;9.044;2023-06-22T01:48:34;20.77;;;15.55;;
75689;SDS011;64303;53.118;9.044;2023-06-22T01:51:01;17.98;;;15.15;;
75689;SDS011;64303;53.118;9.044;2023-06-22T01:53:28;19.75;;;15.07;;
75689;SDS011;64303;53.118;9.044;2023-06-22T01:55:55;23.38;;;19.70;;
75689;SDS011;64303;53.118;9.044;2023-06-22T01:58:23;20.20;;;17.05;;
75689;SDS011;64303;53.118;9.044;2023-06-22T02:00:53;23.25;;;20.70;;
75689;SDS011;64303;53.118;9.044;2023-06-22T02:03:27;20.00;;;15.95;;
75689;SDS011;64303;53.118;9.044;2023-06-22T02:05:57;20.75;;;15.82;;
75689;SDS011;64303;53.118;9.044;2023-06-22T02:08:29;18.30;;;16.38;;
75689;SDS011;64303;53.118;9.044;2023-06-22T02:10:58;20.00;;;16.83;;
75689;SDS011;64303;53.118;9.044;2023-06-22T02:13:26;20.08;;;16.80;;
75689;SDS011;64303;53.118;9.044;2023-06-22T02:15:53;19.67;;;16.33;;
75689;SDS011;64303;53.118;9.044;2023-06-22T02:18:20;20.25;;;15.85;;
75689;SDS011;64303;53.118;9.044;2023-06-22T02:20:48;20.92;;;16.27;;
75689;SDS011;64303;53.118;9.044;2023-06-22T02:23:15;20.33;;;15.73;;
75689;SDS011;64303;53.118;9.044;2023-06-22T02:25:42;19.15;;;14.82;;
75689;SDS011;64303;53.118;9.044;2023-06-22T02:28:10;19.45;;;16.02;;
75689;SDS011;64303;53.118;9.044;2023-06-22T02:30:37;20.05;;;15.98;;
75689;SDS011;64303;53.118;9.044;2023-06-22T02:33:06;20.17;;;16.20;;
75689;SDS011;64303;53.118;9.044;2023-06-22T02:35:33;19.00;;;15.70;;
75689;SDS011;64303;53.118;9.044;2023-06-22T02:40:29;17.58;;;14.73;;
75689;SDS011;64303;53.118;9.044;2023-06-22T02:42:56;20.10;;;15.63;;
75689;SDS011;64303;53.118;9.044;2023-06-22T02:45:26;19.15;;;16.77;;
75689;SDS011;64303;53.118;9.044;2023-06-22T02:47:53;20.40;;;16.23;;
75689;SDS011;64303;53.118;9.044;2023-06-22T02:50:20;21.50;;;16.70;;
75689;SDS011;64303;53.118;9.044;2023-06-22T02:52:47;18.83;;;14.27;;
75689;SDS011;64303;53.118;9.044;2023-06-22T02:55:15;17.90;;;13.75;;
75689;SDS011;64303;53.118;9.044;2023-06-22T02:57:49;16.42;;;12.02;;
75689;SDS011;64303;53.118;9.044;2023-06-22T03:00:19;16.75;;;12.02;;
75689;SDS011;64303;53.118;9.044;2023-06-22T03:02:48;14.27;;;12.35;;
75689;SDS011;64303;53.118;9.044;2023-06-22T03:05:16;15.30;;;12.52;;
75689;SDS011;64303;53.118;9.044;2023-06-22T03:07:44;17.95;;;14.52;;
75689;SDS011;64303;53.118;9.044;2023-06-22T03:10:11;15.30;;;12.40;;
75689;SDS011;64303;53.118;9.044;2023-06-22T03:12:40;15.68;;;12.95;;
75689;SDS011;64303;53.118;9.044;2023-06-22T03:15:09;16.40;;;12.10;;
75689;SDS011;64303;53.118;9.044;2023-06-22T03:17:37;18.10;;;12.60;;
75689;SDS011;64303;53.118;9.044;2023-06-22T03:20:04;18.58;;;14.30;;
75689;SDS011;64303;53.118;9.044;2023-06-22T03:22:34;16.10;;;14.38;;
75689;SDS011;64303;53.118;9.044;2023-06-22T03:25:02;19.35;;;16.95;;
75689;SDS011;64303;53.118;9.044;2023-06-22T03:27:29;18.05;;;16.13;;
75689;SDS011;64303;53.118;9.044;2023-06-22T03:29:57;19.02;;;15.13;;
75689;SDS011;64303;53.118;9.044;2023-06-22T03:32:24;19.48;;;16.25;;
75689;SDS011;64303;53.118;9.044;2023-06-22T03:34:53;21.52;;;16.50;;
75689;SDS011;64303;53.118;9.044;2023-06-22T03:37:20;16.35;;;12.50;;
75689;SDS011;64303;53.118;9.044;2023-06-22T03:39:47;17.02;;;14.07;;
75689;SDS011;64303;53.118;9.044;2023-06-22T03:42:15;18.05;;;14.48;;
75689;SDS011;64303;53.118;9.044;2023-06-22T03:44:42;18.65;;;15.10;;
75689;SDS011;64303;53.118;9.044;2023-06-22T03:47:10;24.27;;;17.00;;
75689;SDS011;64303;53.118;9.044;2023-06-22T03:49:36;19.42;;;16.75;;
75689;SDS011;64303;53.118;9.044;2023-06-22T03:52:04;21.40;;;17.70;;
75689;SDS011;64303;53.118;9.044;2023-06-22T03:54:31;20.88;;;18.23;;
75689;SDS011;64303;53.118;9.044;2023-06-22T03:56:58;22.38;;;17.85;;
75689;SDS011;64303;53.118;9.044;2023-06-22T03:59:25;21.63;;;16.65;;
75689;SDS011;64303;53.118;9.044;2023-06-22T04:01:52;20.58;;;16.17;;
75689;SDS011;64303;53.118;9.044;2023-06-22T04:04:19;20.38;;;16.67;;
75689;SDS011;64303;53.118;9.044;2023-06-22T04:06:46;21.48;;;17.75;;
75689;SDS011;64303;53.118;9.044;2023-06-22T04:09:13;22.45;;;16.23;;
75689;SDS011;64303;53.118;9.044;2023-06-22T04:11:43;21.88;;;17.92;;
75689;SDS011;64303;53.118;9.044;2023-06-22T04:14:09;21.83;;;16.95;;
75689;SDS011;64303;53.118;9.044;2023-06-22T04:16:36;21.92;;;19.55;;
75689;SDS011;64303;53.118;9.044;2023-06-22T04:19:03;21.13;;;18.08;;
75689;SDS011;64303;53.118;9.044;2023-06-22T04:21:31;21.35;;;16.83;;
75689;SDS011;64303;53.118;9.044;2023-06-22T04:23:57;13.43;;;11.50;;
75689;SDS011;64303;53.118;9.044;2023-06-22T04:26:24;16.23;;;12.98;;
75689;SDS011;64303;53.118;9.044;2023-06-22T04:28:51;16.00;;;12.85;;
75689;SDS011;64303;53.118;9.044;2023-06-22T04:31:21;17.77;;;13.10;;
75689;SDS011;64303;53.118;9.044;2023-06-22T04:33:57;17.30;;;14.63;;
75689;SDS011;64303;53.118;9.044;2023-06-22T04:36:32;21.10;;;14.75;;
75689;SDS011;64303;53.118;9.044;2023-06-22T04:39:03;18.30;;;15.95;;
75689;SDS011;64303;53.118;9.044;2023-06-22T04:41:32;19.13;;;15.30;;
75689;SDS011;64303;53.118;9.044;2023-06-22T04:44:07;20.33;;;14.95;;
75689;SDS011;64303;53.118;9.044;2023-06-22T04:46:38;18.02;;;14.70;;
75689;SDS011;64303;53.118;9.044;2023-06-22T04:49:06;18.98;;;15.15;;
75689;SDS011;64303;53.118;9.044;2023-06-22T04:51:40;16.77;;;14.30;;
75689;SDS011;64303;53.118;9.044;2023-06-22T04:54:08;19.80;;;14.93;;
75689;SDS011;64303;53.118;9.044;2023-06-22T04:56:36;17.98;;;15.95;;
75689;SDS011;64303;53.118;9.044;2023-06-22T04:59:06;19.42;;;17.20;;
75689;SDS011;64303;53.118;9.044;2023-06-22T05:01:33;20.88;;;16.67;;
75689;SDS011;64303;53.118;9.044;2023-06-22T05:04:00;21.42;;;16.33;;
75689;SDS011;64303;53.118;9.044;2023-06-22T05:06:27;23.05;;;18.33;;
75689;SDS011;64303;53.118;9.044;2023-06-22T05:08:56;22.65;;;17.73;;
75689;SDS011;64303;53.118;9.044;2023-06-22T05:11:24;26.02;;;20.38;;
75689;SDS011;64303;53.118;9.044;2023-06-22T05:13:51;25.70;;;18.38;;
75689;SDS011;64303;53.118;9.044;2023-06-22T05:16:18;25.13;;;17.75;;
75689;SDS011;64303;53.118;9.044;2023-06-22T05:18:50;27.95;;;19.40;;
75689;SDS011;64303;53.118;9.044;2023-06-22T05:21:21;28.35;;;20.10;;
75689;SDS011;64303;53.118;9.044;2023-06-22T05:23:48;32.13;;;19.30;;
75689;SDS011;64303;53.118;9.044;2023-06-22T05:26:16;28.38;;;20.70;;
75689;SDS011;64303;53.118;9.044;2023-06-22T05:28:43;25.05;;;18.35;;
75689;SDS011;64303;53.118;9.044;2023-06-22T05:31:11;29.02;;;19.50;;
75689;SDS011;64303;53.118;9.044;2023-06-22T05:33:39;27.90;;;18.63;;
75689;SDS011;64303;53.118;9.044;2023-06-22T05:36:05;24.35;;;17.80;;
75689;SDS011;64303;53.118;9.044;2023-06-22T05:38:32;23.40;;;17.67;;
75689;SDS011;64303;53.118;9.044;2023-06-22T05:40:59;23.67;;;16.75;;
75689;SDS011;64303;53.118;9.044;2023-06-22T05:43:27;21.25;;;17.70;;
75689;SDS011;64303;53.118;9.044;2023-06-22T05:45:54;21.52;;;15.43;;
75689;SDS011;64303;53.118;9.044;2023-06-22T05:48:21;22.63;;;14.50;;
75689;SDS011;64303;53.118;9.044;2023-06-22T05:50:47;19.00;;;15.15;;
75689;SDS011;64303;53.118;9.044;2023-06-22T05:53:14;18.38;;;13.13;;
75689;SDS011;64303;53.118;9.044;2023-06-22T05:55:41;18.77;;;13.65;;
75689;SDS011;64303;53.118;9.044;2023-06-22T05:58:08;20.73;;;14.02;;
75689;SDS011;64303;53.118;9.044;2023-06-22T06:00:36;16.15;;;12.85;;
75689;SDS011;64303;53.118;9.044;2023-06-22T06:03:03;15.45;;;11.80;;
75689;SDS011;64303;53.118;9.044;2023-06-22T06:05:30;15.10;;;11.80;;
75689;SDS011;64303;53.118;9.044;2023-06-22T06:07:57;12.35;;;9.02;;
75689;SDS011;64303;53.118;9.044;2023-06-22T06:12:51;11.77;;;8.68;;
75689;SDS011;64303;53.118;9.044;2023-06-22T06:15:18;12.82;;;9.40;;
75689;SDS011;64303;53.118;9.044;2023-06-22T06:17:46;13.25;;;9.27;;
75689;SDS011;64303;53.118;9.044;2023-06-22T06:20:14;11.40;;;6.63;;
75689;SDS011;64303;53.118;9.044;2023-06-22T06:22:40;12.50;;;8.18;;
75689;SDS011;64303;53.118;9.044;2023-06-22T06:25:08;8.98;;;6.50;;
75689;SDS011;64303;53.118;9.044;2023-06-22T06:27:35;9.38;;;7.38;;
75689;SDS011;64303;53.118;9.044;2023-06-22T06:30:02;9.77;;;7.18;;
75689;SDS011;64303;53.118;9.044;2023-06-22T06:34:57;9.32;;;6.35;;
75689;SDS011;64303;53.118;9.044;2023-06-22T06:37:24;11.02;;;6.55;;
75689;SDS011;64303;53.118;9.044;2023-06-22T06:39:50;9.80;;;6.47;;
75689;SDS011;64303;53.118;9.044;2023-06-22T06:42:17;10.07;;;6.03;;
75689;SDS011;64303;53.118;9.044;2023-06-22T06:47:11;9.48;;;6.90;;
75689;SDS011;64303;53.118;9.044;2023-06-22T06:49:38;9.88;;;6.90;;
75689;SDS011;64303;53.118;9.044;2023-06-22T06:52:06;10.05;;;7.60;;
75689;SDS011;64303;53.118;9.044;2023-06-22T06:54:33;12.77;;;7.55;;
75689;SDS011;64303;53.118;9.044;2023-06-22T06:57:00;8.82;;;7.25;;
75689;SDS011;64303;53.118;9.044;2023-06-22T06:59:28;10.20;;;7.95;;
75689;SDS011;64303;53.118;9.044;2023-06-22T07:01:55;10.40;;;7.60;;
75689;SDS011;64303;53.118;9.044;2023-06-22T07:04:22;9.75;;;6.75;;
75689;SDS011;64303;53.118;9.044;2023-06-22T07:06:48;12.02;;;7.40;;
75689;SDS011;64303;53.118;9.044;2023-06-22T07:09:16;7.90;;;5.72;;
75689;SDS011;64303;53.118;9.044;2023-06-22T07:11:43;8.70;;;5.68;;
75689;SDS011;64303;53.118;9.044;2023-06-22T07:14:10;7.72;;;5.88;;
75689;SDS011;64303;53.118;9.044;2023-06-22T07:16:37;9.48;;;6.35;;
75689;SDS011;64303;53.118;9.044;2023-06-22T07:19:04;8.20;;;6.88;;
75689;SDS011;64303;53.118;9.044;2023-06-22T07:21:30;9.15;;;5.88;;
75689;SDS011;64303;53.118;9.044;2023-06-22T07:23:57;7.78;;;4.72;;
75689;SDS011;64303;53.118;9.044;2023-06-22T07:26:25;8.20;;;5.20;;
75689;SDS011;64303;53.118;9.044;2023-06-22T07:28:52;7.95;;;4.97;;
75689;SDS011;64303;53.118;9.044;2023-06-22T07:31:18;11.77;;;6.60;;
75689;SDS011;64303;53.118;9.044;2023-06-22T07:33:45;11.30;;;6.95;;
75689;SDS011;64303;53.118;9.044;2023-06-22T07:36:11;8.07;;;6.20;;
75689;SDS011;64303;53.118;9.044;2023-06-22T07:38:38;7.20;;;5.55;;
75689;SDS011;64303;53.118;9.044;2023-06-22T07:41:05;8.80;;;6.53;;
75689;SDS011;64303;53.118;9.044;2023-06-22T07:43:33;7.85;;;4.45;;
75689;SDS011;64303;53.118;9.044;2023-06-22T07:46:02;6.80;;;4.63;;
75689;SDS011;64303;53.118;9.044;2023-06-22T07:48:29;7.32;;;5.00;;
75689;SDS011;64303;53.118;9.044;2023-06-22T07:50:55;6.43;;;4.53;;
75689;SDS011;64303;53.118;9.044;2023-06-22T07:53:22;8.05;;;4.88;;
75689;SDS011;64303;53.118;9.044;2023-06-22T07:55:49;7.28;;;4.97;;
75689;SDS011;64303;53.118;9.044;2023-06-22T07:58:16;7.95;;;4.80;;
75689;SDS011;64303;53.118;9.044;2023-06-22T08:00:45;9.20;;;4.53;;
75689;SDS011;64303;53.118;9.044;2023-06-22T08:03:12;8.77;;;4.47;;
75689;SDS011;64303;53.118;9.044;2023-06-22T08:05:39;9.13;;;4.95;;
75689;SDS011;64303;53.118;9.044;2023-06-22T08:08:06;8.57;;;4.63;;
75689;SDS011;64303;53.118;9.044;2023-06-22T08:10:32;5.72;;;3.20;;
75689;SDS011;64303;53.118;9.044;2023-06-22T08:12:59;8.15;;;5.60;;
75689;SDS011;64303;53.118;9.044;2023-06-22T08:15:26;8.60;;;5.20;;
75689;SDS011;64303;53.118;9.044;2023-06-22T08:17:54;8.32;;;5.18;;
75689;SDS011;64303;53.118;9.044;2023-06-22T08:20:21;7.45;;;4.63;;
75689;SDS011;64303;53.118;9.044;2023-06-22T08:22:48;8.93;;;6.03;;
75689;SDS011;64303;53.118;9.044;2023-06-22T08:25:15;7.47;;;5.22;;
75689;SDS011;64303;53.118;9.044;2023-06-22T08:27:44;7.80;;;5.03;;
75689;SDS011;64303;53.118;9.044;2023-06-22T08:30:11;7.70;;;4.90;;
75689;SDS011;64303;53.118;9.044;2023-06-22T08:32:38;6.88;;;4.30;;
75689;SDS011;64303;53.118;9.044;2023-06-22T08:35:07;9.65;;;5.13;;
75689;SDS011;64303;53.118;9.044;2023-06-22T08:37:34;6.50;;;4.10;;
75689;SDS011;64303;53.118;9.044;2023-06-22T08:40:02;7.25;;;4.80;;
75689;SDS011;64303;53.118;9.044;2023-06-22T08:42:30;7.70;;;5.13;;
75689;SDS011;64303;53.118;9.044;2023-06-22T08:44:57;9.75;;;6.57;;
75689;SDS011;64303;53.118;9.044;2023-06-22T08:47:24;8.05;;;4.65;;
75689;SDS011;64303;53.118;9.044;2023-06-22T08:49:51;13.65;;;3.45;;
75689;SDS011;64303;53.118;9.044;2023-06-22T08:52:19;6.75;;;3.38;;
75689;SDS011;64303;53.118;9.044;2023-06-22T08:54:46;8.07;;;4.75;;
75689;SDS011;64303;53.118;9.044;2023-06-22T08:57:13;6.18;;;3.28;;
75689;SDS011;64303;53.118;9.044;2023-06-22T08:59:39;5.93;;;3.05;;
75689;SDS011;64303;53.118;9.044;2023-06-22T09:02:06;5.53;;;3.67;;
75689;SDS011;64303;53.118;9.044;2023-06-22T09:04:33;7.03;;;3.30;;
75689;SDS011;64303;53.118;9.044;2023-06-22T09:07:00;5.20;;;3.45;;
75689;SDS011;64303;53.118;9.044;2023-06-22T09:09:28;6.30;;;3.78;;
75689;SDS011;64303;53.118;9.044;2023-06-22T09:11:54;7.47;;;3.65;;
75689;SDS011;64303;53.118;9.044;2023-06-22T09:14:21;6.28;;;3.05;;
75689;SDS011;64303;53.118;9.044;2023-06-22T09:16:48;6.43;;;3.50;;
75689;SDS011;64303;53.118;9.044;2023-06-22T09:19:15;7.57;;;4.25;;
75689;SDS011;64303;53.118;9.044;2023-06-22T09:21:42;8.20;;;3.13;;
75689;SDS011;64303;53.118;9.044;2023-06-22T09:24:09;6.90;;;3.13;;
75689;SDS011;64303;53.118;9.044;2023-06-22T09:26:37;6.68;;;3.13;;
75689;SDS011;64303;53.118;9.044;2023-06-22T09:29:04;4.97;;;2.75;;
75689;SDS011;64303;53.118;9.044;2023-06-22T09:33:57;5.85;;;3.78;;
75689;SDS011;64303;53.118;9.044;2023-06-22T09:36:24;5.03;;;2.10;;
75689;SDS011;64303;53.118;9.044;2023-06-22T09:38:51;5.05;;;2.60;;
75689;SDS011;64303;53.118;9.044;2023-06-22T09:41:21;4.95;;;2.78;;
75689;SDS011;64303;53.118;9.044;2023-06-22T09:43:49;4.43;;;2.42;;
75689;SDS011;64303;53.118;9.044;2023-06-22T09:46:15;5.40;;;3.33;;
75689;SDS011;64303;53.118;9.044;2023-06-22T09:48:43;3.28;;;2.40;;
75689;SDS011;64303;53.118;9.044;2023-06-22T09:51:10;4.53;;;2.50;;
75689;SDS011;64303;53.118;9.044;2023-06-22T09:53:36;5.30;;;2.60;;
75689;SDS011;64303;53.118;9.044;2023-06-22T09:56:03;4.50;;;3.33;;
75689;SDS011;64303;53.118;9.044;2023-06-22T09:58:31;5.93;;;2.85;;
75689;SDS011;64303;53.118;9.044;2023-06-22T10:00:59;5.00;;;2.88;;
75689;SDS011;64303;53.118;9.044;2023-06-22T10:03:26;5.07;;;2.75;;
75689;SDS011;64303;53.118;9.044;2023-06-22T10:05:52;5.50;;;3.13;;
75689;SDS011;64303;53.118;9.044;2023-06-22T10:08:19;4.53;;;2.55;;
75689;SDS011;64303;53.118;9.044;2023-06-22T10:10:46;5.82;;;3.28;;
75689;SDS011;64303;53.118;9.044;2023-06-22T10:13:13;5.57;;;3.33;;
75689;SDS011;64303;53.118;9.044;2023-06-22T10:15:40;4.40;;;2.95;;
75689;SDS011;64303;53.118;9.044;2023-06-22T10:18:08;5.55;;;2.50;;
75689;SDS011;64303;53.118;9.044;2023-06-22T10:20:34;5.80;;;3.50;;
75689;SDS011;64303;53.118;9.044;2023-06-22T10:23:01;4.40;;;2.30;;
75689;SDS011;64303;53.118;9.044;2023-06-22T10:25:28;6.07;;;2.35;;
75689;SDS011;64303;53.118;9.044;2023-06-22T10:27:54;6.18;;;2.58;;
75689;SDS011;64303;53.118;9.044;2023-06-22T10:32:48;5.70;;;2.50;;
75689;SDS011;64303;53.118;9.044;2023-06-22T10:35:16;6.85;;;3.03;;
75689;SDS011;64303;53.118;9.044;2023-06-22T10:37:43;5.40;;;3.42;;
75689;SDS011;64303;53.118;9.044;2023-06-22T10:42:38;6.88;;;2.80;;
75689;SDS011;64303;53.118;9.044;2023-06-22T10:45:05;5.60;;;3.45;;
75689;SDS011;64303;53.118;9.044;2023-06-22T10:47:33;6.40;;;3.67;;
75689;SDS011;64303;53.118;9.044;2023-06-22T10:50:01;9.60;;;4.72;;
75689;SDS011;64303;53.118;9.044;2023-06-22T10:52:29;7.18;;;3.25;;
75689;SDS011;64303;53.118;9.044;2023-06-22T10:54:56;5.50;;;2.67;;
75689;SDS011;64303;53.118;9.044;2023-06-22T10:57:22;5.57;;;2.53;;
75689;SDS011;64303;53.118;9.044;2023-06-22T10:59:49;4.82;;;3.58;;
75689;SDS011;64303;53.118;9.044;2023-06-22T11:02:16;4.40;;;2.65;;
75689;SDS011;64303;53.118;9.044;2023-06-22T11:04:42;5.47;;;2.72;;
75689;SDS011;64303;53.118;9.044;2023-06-22T11:07:09;4.72;;;2.35;;
75689;SDS011;64303;53.118;9.044;2023-06-22T11:09:37;4.95;;;2.45;;
75689;SDS011;64303;53.118;9.044;2023-06-22T11:12:05;6.10;;;3.55;;
75689;SDS011;64303;53.118;9.044;2023-06-22T11:14:32;8.88;;;3.85;;
75689;SDS011;64303;53.118;9.044;2023-06-22T11:16:59;6.10;;;3.78;;
75689;SDS011;64303;53.118;9.044;2023-06-22T11:19:26;5.03;;;2.97;;
75689;SDS011;64303;53.118;9.044;2023-06-22T11:21:53;4.72;;;3.03;;
75689;SDS011;64303;53.118;9.044;2023-06-22T11:24:19;5.88;;;3.50;;
75689;SDS011;64303;53.118;9.044;2023-06-22T11:26:48;5.53;;;3.13;;
75689;SDS011;64303;53.118;9.044;2023-06-22T11:29:14;4.40;;;3.22;;
75689;SDS011;64303;53.118;9.044;2023-06-22T11:31:41;4.75;;;2.78;;
75689;SDS011;64303;53.118;9.044;2023-06-22T11:34:08;4.55;;;2.55;;
75689;SDS011;64303;53.118;9.044;2023-06-22T11:36:35;4.70;;;2.38;;
75689;SDS011;64303;53.118;9.044;2023-06-22T11:39:02;4.70;;;2.55;;
75689;SDS011;64303;53.118;9.044;2023-06-22T11:41:30;5.68;;;2.92;;
75689;SDS011;64303;53.118;9.044;2023-06-22T11:43:58;4.88;;;3.13;;
75689;SDS011;64303;53.118;9.044;2023-06-22T11:46:25;6.65;;;2.72;;
75689;SDS011;64303;53.118;9.044;2023-06-22T11:48:51;5.47;;;2.20;;
75689;SDS011;64303;53.118;9.044;2023-06-22T11:51:18;7.05;;;2.95;;
75689;SDS011;64303;53.118;9.044;2023-06-22T11:53:45;5.90;;;3.05;;
75689;SDS011;64303;53.118;9.044;2023-06-22T11:56:11;5.10;;;3.10;;
75689;SDS011;64303;53.118;9.044;2023-06-22T11:58:38;4.97;;;2.67;;
75689;SDS011;64303;53.118;9.044;2023-06-22T12:01:06;6.60;;;3.10;;
75689;SDS011;64303;53.118;9.044;2023-06-22T12:03:33;4.78;;;3.45;;
75689;SDS011;64303;53.118;9.044;2023-06-22T12:06:00;5.15;;;3.13;;
75689;SDS011;64303;53.118;9.044;2023-06-22T12:08:26;4.82;;;2.90;;
75689;SDS011;64303;53.118;9.044;2023-06-22T12:10:53;4.80;;;2.75;;
75689;SDS011;64303;53.118;9.044;2023-06-22T12:13:20;5.47;;;3.13;;
75689;SDS011;64303;53.118;9.044;2023-06-22T12:15:46;5.18;;;2.88;;
75689;SDS011;64303;53.118;9.044;2023-06-22T12:18:14;6.07;;;3.05;;
75689;SDS011;64303;53.118;9.044;2023-06-22T12:20:41;6.20;;;3.15;;
75689;SDS011;64303;53.118;9.044;2023-06-22T12:23:08;4.85;;;3.13;;
75689;SDS011;64303;53.118;9.044;2023-06-22T12:25:34;7.63;;;2.70;;
75689;SDS011;64303;53.118;9.044;2023-06-22T12:28:01;5.28;;;3.38;;
75689;SDS011;64303;53.118;9.044;2023-06-22T12:30:29;6.03;;;2.80;;
75689;SDS011;64303;53.118;9.044;2023-06-22T12:32:56;4.72;;;2.72;;
75689;SDS011;64303;53.118;9.044;2023-06-22T12:35:24;5.90;;;3.15;;
75689;SDS011;64303;53.118;9.044;2023-06-22T12:37:51;5.20;;;2.72;;
75689;SDS011;64303;53.118;9.044;2023-06-22T12:42:44;6.22;;;3.47;;
75689;SDS011;64303;53.118;9.044;2023-06-22T12:47:38;6.03;;;3.13;;
75689;SDS011;64303;53.118;9.044;2023-06-22T12:50:05;5.00;;;3.28;;
75689;SDS011;64303;53.118;9.044;2023-06-22T12:52:36;5.90;;;3.40;;
75689;SDS011;64303;53.118;9.044;2023-06-22T12:55:04;5.47;;;3.38;;
75689;SDS011;64303;53.118;9.044;2023-06-22T12:57:31;5.03;;;3.58;;
75689;SDS011;64303;53.118;9.044;2023-06-22T12:59:58;5.93;;;4.13;;
75689;SDS011;64303;53.118;9.044;2023-06-22T13:02:26;5.90;;;3.40;;
75689;SDS011;64303;53.118;9.044;2023-06-22T13:04:53;6.50;;;3.90;;
75689;SDS011;64303;53.118;9.044;2023-06-22T13:07:19;5.50;;;3.33;;
75689;SDS011;64303;53.118;9.044;2023-06-22T13:09:47;6.47;;;4.35;;
75689;SDS011;64303;53.118;9.044;2023-06-22T13:12:16;5.63;;;4.45;;
75689;SDS011;64303;53.118;9.044;2023-06-22T13:14:43;6.35;;;4.43;;
75689;SDS011;64303;53.118;9.044;2023-06-22T13:17:11;6.32;;;4.97;;
75689;SDS011;64303;53.118;9.044;2023-06-22T13:19:39;5.88;;;3.88;;
75689;SDS011;64303;53.118;9.044;2023-06-22T13:22:09;5.85;;;3.22;;
75689;SDS011;64303;53.118;9.044;2023-06-22T13:24:56;6.75;;;4.90;;
75689;SDS011;64303;53.118;9.044;2023-06-22T13:27:24;6.70;;;4.63;;
75689;SDS011;64303;53.118;9.044;2023-06-22T13:29:51;5.28;;;3.83;;
75689;SDS011;64303;53.118;9.044;2023-06-22T13:34:44;6.65;;;4.28;;
75689;SDS011;64303;53.118;9.044;2023-06-22T13:37:11;5.07;;;3.13;;
75689;SDS011;64303;53.118;9.044;2023-06-22T13:39:38;6.53;;;4.40;;
75689;SDS011;64303;53.118;9.044;2023-06-22T13:42:06;6.95;;;5.22;;
75689;SDS011;64303;53.118;9.044;2023-06-22T13:44:34;5.88;;;4.05;;
75689;SDS011;64303;53.118;9.044;2023-06-22T13:47:00;6.88;;;4.55;;
75689;SDS011;64303;53.118;9.044;2023-06-22T13:49:27;7.00;;;4.18;;
75689;SDS011;64303;53.118;9.044;2023-06-22T13:51:54;5.80;;;4.07;;
75689;SDS011;64303;53.118;9.044;2023-06-22T13:54:21;6.85;;;4.28;;
75689;SDS011;64303;53.118;9.044;2023-06-22T13:56:48;8.25;;;4.90;;
75689;SDS011;64303;53.118;9.044;2023-06-22T13:59:16;6.47;;;5.15;;
75689;SDS011;64303;53.118;9.044;2023-06-22T14:01:42;5.57;;;4.20;;
75689;SDS011;64303;53.118;9.044;2023-06-22T14:04:09;5.90;;;4.55;;
75689;SDS011;64303;53.118;9.044;2023-06-22T14:06:37;5.85;;;4.00;;
75689;SDS011;64303;53.118;9.044;2023-06-22T14:09:04;6.03;;;5.22;;
75689;SDS011;64303;53.118;9.044;2023-06-22T14:11:30;6.13;;;4.57;;
75689;SDS011;64303;53.118;9.044;2023-06-22T14:13:57;7.20;;;4.00;;
75689;SDS011;64303;53.118;9.044;2023-06-22T14:16:25;5.68;;;4.38;;
75689;SDS011;64303;53.118;9.044;2023-06-22T14:18:52;7.85;;;4.15;;
75689;SDS011;64303;53.118;9.044;2023-06-22T14:21:19;7.05;;;3.92;;
75689;SDS011;64303;53.118;9.044;2023-06-22T14:23:46;7.18;;;3.95;;
75689;SDS011;64303;53.118;9.044;2023-06-22T14:26:14;8.02;;;4.53;;
75689;SDS011;64303;53.118;9.044;2023-06-22T14:28:42;5.60;;;4.05;;
75689;SDS011;64303;53.118;9.044;2023-06-22T14:31:12;5.75;;;4.10;;
75689;SDS011;64303;53.118;9.044;2023-06-22T14:33:43;8.73;;;4.63;;
75689;SDS011;64303;53.118;9.044;2023-06-22T14:36:11;6.75;;;5.18;;
75689;SDS011;64303;53.118;9.044;2023-06-22T14:38:38;7.57;;;4.88;;
75689;SDS011;64303;53.118;9.044;2023-06-22T14:41:04;7.10;;;4.53;;
75689;SDS011;64303;53.118;9.044;2023-06-22T14:43:31;6.43;;;4.63;;
75689;SDS011;64303;53.118;9.044;2023-06-22T14:45:58;5.60;;;4.57;;
75689;SDS011;64303;53.118;9.044;2023-06-22T14:48:25;5.93;;;3.80;;
75689;SDS011;64303;53.118;9.044;2023-06-22T14:50:53;7.07;;;4.90;;
75689;SDS011;64303;53.118;9.044;2023-06-22T14:53:20;5.85;;;3.83;;
75689;SDS011;64303;53.118;9.044;2023-06-22T14:55:47;7.47;;;4.60;;
75689;SDS011;64303;53.118;9.044;2023-06-22T14:58:14;7.82;;;4.82;;
75689;SDS011;64303;53.118;9.044;2023-06-22T15:00:40;6.15;;;4.70;;
75689;SDS011;64303;53.118;9.044;2023-06-22T15:03:07;5.45;;;4.30;;
75689;SDS011;64303;53.118;9.044;2023-06-22T15:05:36;7.95;;;4.47;;
75689;SDS011;64303;53.118;9.044;2023-06-22T15:08:04;6.32;;;4.30;;